sensor_id;sensor_type;location;lat;lon;timestamp;temperature;humidity
20598;DHT22;10457;48.770;11.446;2022-12-18T00:03:20;-6.40;99.90
20598;DHT22;10457;48.770;11.446;2022-12-18T00:08:44;-6.40;99.90
20598;DHT22;10457;48.770;11.446;2022-12-18T00:14:06;-6.30;99.90
20598;DHT22;10457;48.770;11.446;2022-12-18T00:19:28;-6.30;99.90
20598;DHT22;10457;48.770;11.446;2022-12-18T00:24:51;-6.30;99.90
20598;DHT22;10457;48.770;11.446;2022-12-18T00:30:12;-6.30;99.90
20598;DHT22;10457;48.770;11.446;2022-12-18T00:35:34;-6.20;99.90
20598;DHT22;10457;48.770;11.446;2022-12-18T00:40:57;-6.10;99.90
20598;DHT22;10457;48.770;11.446;2022-12-18T00:46:19;-6.00;99.90
20598;DHT22;10457;48.770;11.446;2022-12-18T00:51:41;-5.90;99.90
20598;DHT22;10457;48.770;11.446;2022-12-18T00:57:04;-5.80;99.90
20598;DHT22;10457;48.770;11.446;2022-12-18T01:02:26;-5.70;99.90
20598;DHT22;10457;48.770;11.446;2022-12-18T01:07:47;-5.70;99.90
20598;DHT22;10457;48.770;11.446;2022-12-18T01:13:10;-5.70;99.90
20598;DHT22;10457;48.770;11.446;2022-12-18T01:18:32;-5.60;99.90
20598;DHT22;10457;48.770;11.446;2022-12-18T01:23:54;-5.60;99.90
20598;DHT22;10457;48.770;11.446;2022-12-18T01:29:18;-5.60;99.90
20598;DHT22;10457;48.770;11.446;2022-12-18T01:34:40;-5.50;99.90
20598;DHT22;10457;48.770;11.446;2022-12-18T01:40:01;-5.50;99.90
20598;DHT22;10457;48.770;11.446;2022-12-18T01:45:27;-5.50;99.90
20598;DHT22;10457;48.770;11.446;2022-12-18T01:50:50;-5.40;99.90
20598;DHT22;10457;48.770;11.446;2022-12-18T01:56:14;-5.40;99.90
20598;DHT22;10457;48.770;11.446;2022-12-18T02:01:38;-5.20;99.90
20598;DHT22;10457;48.770;11.446;2022-12-18T02:07:03;-5.40;99.90
20598;DHT22;10457;48.770;11.446;2022-12-18T02:12:42;-5.30;99.90
20598;DHT22;10457;48.770;11.446;2022-12-18T02:18:12;-5.30;99.90
20598;DHT22;10457;48.770;11.446;2022-12-18T02:23:47;-5.30;99.90
20598;DHT22;10457;48.770;11.446;2022-12-18T02:29:17;-5.20;99.90
20598;DHT22;10457;48.770;11.446;2022-12-18T02:34:43;-5.30;99.90
20598;DHT22;10457;48.770;11.446;2022-12-18T02:40:09;-5.30;99.90
20598;DHT22;10457;48.770;11.446;2022-12-18T02:45:33;-5.20;99.90
20598;DHT22;10457;48.770;11.446;2022-12-18T02:51:00;-5.10;99.90
20598;DHT22;10457;48.770;11.446;2022-12-18T02:56:29;-5.00;99.90
20598;DHT22;10457;48.770;11.446;2022-12-18T03:01:58;-5.10;99.90
20598;DHT22;10457;48.770;11.446;2022-12-18T03:07:32;-5.10;99.90
20598;DHT22;10457;48.770;11.446;2022-12-18T03:13:02;-5.10;99.90
20598;DHT22;10457;48.770;11.446;2022-12-18T03:18:30;-5.00;99.90
20598;DHT22;10457;48.770;11.446;2022-12-18T03:23:56;-5.10;99.90
20598;DHT22;10457;48.770;11.446;2022-12-18T03:29:25;-5.00;99.90
20598;DHT22;10457;48.770;11.446;2022-12-18T03:34:54;-5.00;99.90
20598;DHT22;10457;48.770;11.446;2022-12-18T03:40:17;-4.90;99.90
20598;DHT22;10457;48.770;11.446;2022-12-18T03:45:44;-4.80;99.90
20598;DHT22;10457;48.770;11.446;2022-12-18T03:51:15;-4.90;99.90
20598;DHT22;10457;48.770;11.446;2022-12-18T03:56:45;-4.80;99.90
20598;DHT22;10457;48.770;11.446;2022-12-18T04:02:09;-4.90;99.90
20598;DHT22;10457;48.770;11.446;2022-12-18T04:07:33;-4.80;99.90
20598;DHT22;10457;48.770;11.446;2022-12-18T04:12:55;-4.90;99.90
20598;DHT22;10457;48.770;11.446;2022-12-18T04:18:18;-4.80;99.90
20598;DHT22;10457;48.770;11.446;2022-12-18T04:23:41;-4.70;99.90
20598;DHT22;10457;48.770;11.446;2022-12-18T04:29:03;-4.60;99.90
20598;DHT22;10457;48.770;11.446;2022-12-18T04:34:25;-4.50;99.90
20598;DHT22;10457;48.770;11.446;2022-12-18T04:39:49;-4.60;99.90
20598;DHT22;10457;48.770;11.446;2022-12-18T04:45:19;-4.60;99.90
20598;DHT22;10457;48.770;11.446;2022-12-18T04:50:40;-4.60;99.90
20598;DHT22;10457;48.770;11.446;2022-12-18T04:56:05;-4.50;99.90
20598;DHT22;10457;48.770;11.446;2022-12-18T05:01:27;-4.60;99.90
20598;DHT22;10457;48.770;11.446;2022-12-18T05:06:49;-4.50;99.90
20598;DHT22;10457;48.770;11.446;2022-12-18T05:12:12;-4.50;99.90
20598;DHT22;10457;48.770;11.446;2022-12-18T05:17:33;-4.50;99.90
20598;DHT22;10457;48.770;11.446;2022-12-18T05:22:55;-4.40;99.90
20598;DHT22;10457;48.770;11.446;2022-12-18T05:28:18;-4.40;99.90
20598;DHT22;10457;48.770;11.446;2022-12-18T05:33:41;-4.40;99.90
20598;DHT22;10457;48.770;11.446;2022-12-18T05:39:02;-4.40;99.90
20598;DHT22;10457;48.770;11.446;2022-12-18T05:44:25;-4.40;99.90
20598;DHT22;10457;48.770;11.446;2022-12-18T05:49:47;-4.30;99.90
20598;DHT22;10457;48.770;11.446;2022-12-18T05:55:08;-4.20;99.90
20598;DHT22;10457;48.770;11.446;2022-12-18T06:00:32;-4.30;99.90
20598;DHT22;10457;48.770;11.446;2022-12-18T06:05:55;-4.30;99.90
20598;DHT22;10457;48.770;11.446;2022-12-18T06:11:19;-4.30;99.90
20598;DHT22;10457;48.770;11.446;2022-12-18T06:16:43;-4.50;99.90
20598;DHT22;10457;48.770;11.446;2022-12-18T06:22:04;-4.50;99.90
20598;DHT22;10457;48.770;11.446;2022-12-18T06:27:26;-4.40;99.90
20598;DHT22;10457;48.770;11.446;2022-12-18T06:32:49;-4.40;99.90
20598;DHT22;10457;48.770;11.446;2022-12-18T06:38:10;-4.40;99.90
20598;DHT22;10457;48.770;11.446;2022-12-18T06:43:32;-4.30;99.90
20598;DHT22;10457;48.770;11.446;2022-12-18T06:48:55;-4.30;99.90
20598;DHT22;10457;48.770;11.446;2022-12-18T06:54:16;-4.30;99.90
20598;DHT22;10457;48.770;11.446;2022-12-18T06:59:37;-4.40;99.90
20598;DHT22;10457;48.770;11.446;2022-12-18T07:05:00;-4.40;99.90
20598;DHT22;10457;48.770;11.446;2022-12-18T07:10:22;-4.30;99.90
20598;DHT22;10457;48.770;11.446;2022-12-18T07:15:44;-4.20;99.90
20598;DHT22;10457;48.770;11.446;2022-12-18T07:21:08;-4.20;99.90
20598;DHT22;10457;48.770;11.446;2022-12-18T07:26:30;-4.10;99.90
20598;DHT22;10457;48.770;11.446;2022-12-18T07:31:52;-4.10;99.90
20598;DHT22;10457;48.770;11.446;2022-12-18T07:37:14;-4.10;99.90
20598;DHT22;10457;48.770;11.446;2022-12-18T07:42:36;-4.20;99.90
20598;DHT22;10457;48.770;11.446;2022-12-18T07:47:58;-4.10;99.90
20598;DHT22;10457;48.770;11.446;2022-12-18T07:53:21;-4.10;99.90
20598;DHT22;10457;48.770;11.446;2022-12-18T07:58:42;-4.00;99.90
20598;DHT22;10457;48.770;11.446;2022-12-18T08:04:08;-4.00;99.90
20598;DHT22;10457;48.770;11.446;2022-12-18T08:09:31;-4.00;99.90
20598;DHT22;10457;48.770;11.446;2022-12-18T08:14:52;-3.90;99.90
20598;DHT22;10457;48.770;11.446;2022-12-18T08:20:14;-3.80;99.90
20598;DHT22;10457;48.770;11.446;2022-12-18T08:25:39;-3.80;99.90
20598;DHT22;10457;48.770;11.446;2022-12-18T08:31:00;-3.70;99.90
20598;DHT22;10457;48.770;11.446;2022-12-18T08:36:22;-3.70;99.90
20598;DHT22;10457;48.770;11.446;2022-12-18T08:41:46;-3.70;99.90
20598;DHT22;10457;48.770;11.446;2022-12-18T08:47:28;-3.70;99.90
20598;DHT22;10457;48.770;11.446;2022-12-18T08:52:49;-3.50;99.90
20598;DHT22;10457;48.770;11.446;2022-12-18T08:58:12;-3.60;99.90
20598;DHT22;10457;48.770;11.446;2022-12-18T09:03:34;-3.40;99.90
20598;DHT22;10457;48.770;11.446;2022-12-18T09:08:57;-3.30;99.90
20598;DHT22;10457;48.770;11.446;2022-12-18T09:14:19;-3.40;99.90
20598;DHT22;10457;48.770;11.446;2022-12-18T09:19:41;-3.30;99.90
20598;DHT22;10457;48.770;11.446;2022-12-18T09:25:06;-3.30;99.90
20598;DHT22;10457;48.770;11.446;2022-12-18T09:30:30;-3.40;99.90
20598;DHT22;10457;48.770;11.446;2022-12-18T09:35:52;-3.50;99.90
20598;DHT22;10457;48.770;11.446;2022-12-18T09:41:25;-3.30;99.90
20598;DHT22;10457;48.770;11.446;2022-12-18T09:47:12;-3.30;99.90
20598;DHT22;10457;48.770;11.446;2022-12-18T09:52:40;-3.20;99.90
20598;DHT22;10457;48.770;11.446;2022-12-18T09:58:07;-3.10;99.90
20598;DHT22;10457;48.770;11.446;2022-12-18T10:03:37;-3.10;99.90
20598;DHT22;10457;48.770;11.446;2022-12-18T10:09:01;-3.00;99.90
20598;DHT22;10457;48.770;11.446;2022-12-18T10:14:30;-3.00;99.90
20598;DHT22;10457;48.770;11.446;2022-12-18T10:20:00;-3.10;99.90
20598;DHT22;10457;48.770;11.446;2022-12-18T10:25:27;-3.20;99.90
20598;DHT22;10457;48.770;11.446;2022-12-18T10:30:51;-3.20;99.90
20598;DHT22;10457;48.770;11.446;2022-12-18T10:36:15;-3.10;99.30
20598;DHT22;10457;48.770;11.446;2022-12-18T10:41:36;-2.90;92.40
20598;DHT22;10457;48.770;11.446;2022-12-18T10:47:03;-2.80;92.50
20598;DHT22;10457;48.770;11.446;2022-12-18T10:52:28;-2.70;91.10
20598;DHT22;10457;48.770;11.446;2022-12-18T10:57:49;-2.70;88.50
20598;DHT22;10457;48.770;11.446;2022-12-18T11:03:31;-2.70;88.30
20598;DHT22;10457;48.770;11.446;2022-12-18T11:09:01;-2.80;88.70
20598;DHT22;10457;48.770;11.446;2022-12-18T11:14:25;-2.70;89.40
20598;DHT22;10457;48.770;11.446;2022-12-18T11:19:53;-2.70;88.90
20598;DHT22;10457;48.770;11.446;2022-12-18T11:25:19;-2.70;87.00
20598;DHT22;10457;48.770;11.446;2022-12-18T11:30:41;-2.50;87.00
20598;DHT22;10457;48.770;11.446;2022-12-18T11:36:04;-2.40;86.00
20598;DHT22;10457;48.770;11.446;2022-12-18T11:41:30;-2.40;85.40
20598;DHT22;10457;48.770;11.446;2022-12-18T11:47:19;-1.70;82.90
20598;DHT22;10457;48.770;11.446;2022-12-18T11:52:46;-1.70;80.80
20598;DHT22;10457;48.770;11.446;2022-12-18T11:58:16;-1.60;78.50
20598;DHT22;10457;48.770;11.446;2022-12-18T12:03:56;-1.80;79.10
20598;DHT22;10457;48.770;11.446;2022-12-18T12:10:03;-1.80;80.90
20598;DHT22;10457;48.770;11.446;2022-12-18T12:15:41;-1.70;80.60
20598;DHT22;10457;48.770;11.446;2022-12-18T12:21:15;-1.90;80.40
20598;DHT22;10457;48.770;11.446;2022-12-18T12:26:47;-2.20;81.50
20598;DHT22;10457;48.770;11.446;2022-12-18T12:32:22;-2.20;82.60
20598;DHT22;10457;48.770;11.446;2022-12-18T12:38:03;-2.20;82.20
20598;DHT22;10457;48.770;11.446;2022-12-18T12:43:34;-2.20;81.90
20598;DHT22;10457;48.770;11.446;2022-12-18T12:49:00;-2.00;81.40
20598;DHT22;10457;48.770;11.446;2022-12-18T12:54:26;-1.90;81.20
20598;DHT22;10457;48.770;11.446;2022-12-18T12:59:56;-2.00;82.20
20598;DHT22;10457;48.770;11.446;2022-12-18T13:05:23;-2.10;82.50
20598;DHT22;10457;48.770;11.446;2022-12-18T13:10:49;-2.10;83.30
20598;DHT22;10457;48.770;11.446;2022-12-18T13:16:32;-2.30;83.80
20598;DHT22;10457;48.770;11.446;2022-12-18T13:21:54;-2.20;82.80
20598;DHT22;10457;48.770;11.446;2022-12-18T13:33:41;-2.40;85.70
20598;DHT22;10457;48.770;11.446;2022-12-18T13:39:20;-2.40;85.40
20598;DHT22;10457;48.770;11.446;2022-12-18T13:44:44;-2.60;86.50
20598;DHT22;10457;48.770;11.446;2022-12-18T13:50:21;-2.70;86.50
20598;DHT22;10457;48.770;11.446;2022-12-18T13:55:47;-2.60;87.00
20598;DHT22;10457;48.770;11.446;2022-12-18T14:01:21;-2.60;86.40
20598;DHT22;10457;48.770;11.446;2022-12-18T14:06:50;-2.80;86.10
20598;DHT22;10457;48.770;11.446;2022-12-18T14:12:16;-3.00;87.90
20598;DHT22;10457;48.770;11.446;2022-12-18T14:17:58;-3.00;87.90
20598;DHT22;10457;48.770;11.446;2022-12-18T14:23:31;-3.20;89.30
20598;DHT22;10457;48.770;11.446;2022-12-18T14:28:54;-3.30;90.90
20598;DHT22;10457;48.770;11.446;2022-12-18T14:34:16;-3.40;92.60
20598;DHT22;10457;48.770;11.446;2022-12-18T14:39:40;-3.40;92.20
20598;DHT22;10457;48.770;11.446;2022-12-18T14:51:17;-3.40;94.60
20598;DHT22;10457;48.770;11.446;2022-12-18T14:56:45;-3.50;95.80
20598;DHT22;10457;48.770;11.446;2022-12-18T15:02:15;-3.50;97.00
20598;DHT22;10457;48.770;11.446;2022-12-18T15:07:41;-3.50;95.70
20598;DHT22;10457;48.770;11.446;2022-12-18T15:13:15;-3.50;97.50
20598;DHT22;10457;48.770;11.446;2022-12-18T15:18:42;-3.50;97.50
20598;DHT22;10457;48.770;11.446;2022-12-18T15:24:17;-3.60;96.50
20598;DHT22;10457;48.770;11.446;2022-12-18T15:29:40;-3.60;96.00
20598;DHT22;10457;48.770;11.446;2022-12-18T15:35:07;-3.70;97.10
20598;DHT22;10457;48.770;11.446;2022-12-18T15:40:34;-3.70;98.20
20598;DHT22;10457;48.770;11.446;2022-12-18T15:45:57;-3.70;98.90
20598;DHT22;10457;48.770;11.446;2022-12-18T15:51:21;-3.70;96.50
20598;DHT22;10457;48.770;11.446;2022-12-18T15:56:45;-3.80;96.10
20598;DHT22;10457;48.770;11.446;2022-12-18T16:02:25;-3.80;96.40
20598;DHT22;10457;48.770;11.446;2022-12-18T16:07:48;-3.80;97.40
20598;DHT22;10457;48.770;11.446;2022-12-18T16:13:10;-3.80;97.60
20598;DHT22;10457;48.770;11.446;2022-12-18T16:18:33;-3.80;97.30
20598;DHT22;10457;48.770;11.446;2022-12-18T16:23:54;-3.80;98.20
20598;DHT22;10457;48.770;11.446;2022-12-18T16:29:16;-3.80;99.40
20598;DHT22;10457;48.770;11.446;2022-12-18T16:34:39;-3.70;98.10
20598;DHT22;10457;48.770;11.446;2022-12-18T16:40:02;-3.70;96.90
20598;DHT22;10457;48.770;11.446;2022-12-18T16:45:26;-3.70;97.50
20598;DHT22;10457;48.770;11.446;2022-12-18T16:50:59;-3.70;98.00
20598;DHT22;10457;48.770;11.446;2022-12-18T16:56:23;-3.80;98.10
20598;DHT22;10457;48.770;11.446;2022-12-18T17:01:45;-3.90;99.80
20598;DHT22;10457;48.770;11.446;2022-12-18T17:07:09;-3.90;99.90
20598;DHT22;10457;48.770;11.446;2022-12-18T17:12:30;-3.90;99.90
20598;DHT22;10457;48.770;11.446;2022-12-18T17:17:52;-3.90;99.80
20598;DHT22;10457;48.770;11.446;2022-12-18T17:23:15;-3.90;98.80
20598;DHT22;10457;48.770;11.446;2022-12-18T17:28:38;-4.00;99.30
20598;DHT22;10457;48.770;11.446;2022-12-18T17:34:00;-4.00;98.50
20598;DHT22;10457;48.770;11.446;2022-12-18T17:39:24;-4.10;99.90
20598;DHT22;10457;48.770;11.446;2022-12-18T17:44:47;-4.20;99.90
20598;DHT22;10457;48.770;11.446;2022-12-18T17:50:09;-4.10;99.90
20598;DHT22;10457;48.770;11.446;2022-12-18T17:55:32;-4.10;99.90
20598;DHT22;10457;48.770;11.446;2022-12-18T18:00:59;-3.90;99.90
20598;DHT22;10457;48.770;11.446;2022-12-18T18:06:22;-4.10;99.90
20598;DHT22;10457;48.770;11.446;2022-12-18T18:11:46;-4.10;99.90
20598;DHT22;10457;48.770;11.446;2022-12-18T18:17:25;-4.10;99.90
20598;DHT22;10457;48.770;11.446;2022-12-18T18:22:47;-4.20;99.90
20598;DHT22;10457;48.770;11.446;2022-12-18T18:28:10;-4.20;99.90
20598;DHT22;10457;48.770;11.446;2022-12-18T18:33:31;-4.30;99.90
20598;DHT22;10457;48.770;11.446;2022-12-18T18:38:53;-4.30;99.90
20598;DHT22;10457;48.770;11.446;2022-12-18T18:44:17;-4.30;99.90
20598;DHT22;10457;48.770;11.446;2022-12-18T18:49:39;-4.30;99.90
20598;DHT22;10457;48.770;11.446;2022-12-18T18:55:01;-4.50;99.90
20598;DHT22;10457;48.770;11.446;2022-12-18T19:00:24;-4.40;99.90
20598;DHT22;10457;48.770;11.446;2022-12-18T19:05:49;-4.40;99.90
20598;DHT22;10457;48.770;11.446;2022-12-18T19:11:13;-4.30;99.90
20598;DHT22;10457;48.770;11.446;2022-12-18T19:16:53;-4.20;99.90
20598;DHT22;10457;48.770;11.446;2022-12-18T19:22:14;-4.10;99.90
20598;DHT22;10457;48.770;11.446;2022-12-18T19:27:36;-4.00;99.90
20598;DHT22;10457;48.770;11.446;2022-12-18T19:33:00;-4.20;99.90
20598;DHT22;10457;48.770;11.446;2022-12-18T19:38:21;-4.30;99.90
20598;DHT22;10457;48.770;11.446;2022-12-18T19:43:44;-4.40;99.90
20598;DHT22;10457;48.770;11.446;2022-12-18T19:49:07;-4.30;99.90
20598;DHT22;10457;48.770;11.446;2022-12-18T19:54:29;-4.30;99.90
20598;DHT22;10457;48.770;11.446;2022-12-18T19:59:51;-4.40;99.90
20598;DHT22;10457;48.770;11.446;2022-12-18T20:05:14;-4.30;99.90
20598;DHT22;10457;48.770;11.446;2022-12-18T20:10:35;-4.40;99.90
20598;DHT22;10457;48.770;11.446;2022-12-18T20:15:57;-4.40;99.90
20598;DHT22;10457;48.770;11.446;2022-12-18T20:21:20;-4.50;99.90
20598;DHT22;10457;48.770;11.446;2022-12-18T20:26:42;-4.60;99.90
20598;DHT22;10457;48.770;11.446;2022-12-18T20:32:04;-4.60;99.90
20598;DHT22;10457;48.770;11.446;2022-12-18T20:37:27;-4.60;99.90
20598;DHT22;10457;48.770;11.446;2022-12-18T20:42:48;-4.50;99.90
20598;DHT22;10457;48.770;11.446;2022-12-18T20:48:10;-4.50;99.90
20598;DHT22;10457;48.770;11.446;2022-12-18T20:53:34;-4.50;99.90
20598;DHT22;10457;48.770;11.446;2022-12-18T20:58:56;-4.50;99.90
20598;DHT22;10457;48.770;11.446;2022-12-18T21:04:18;-4.50;99.90
20598;DHT22;10457;48.770;11.446;2022-12-18T21:09:41;-4.30;99.90
20598;DHT22;10457;48.770;11.446;2022-12-18T21:15:05;-4.20;99.90
20598;DHT22;10457;48.770;11.446;2022-12-18T21:20:27;-4.30;99.90
20598;DHT22;10457;48.770;11.446;2022-12-18T21:25:50;-4.20;99.90
20598;DHT22;10457;48.770;11.446;2022-12-18T21:31:12;-4.40;99.90
20598;DHT22;10457;48.770;11.446;2022-12-18T21:36:34;-4.40;99.90
20598;DHT22;10457;48.770;11.446;2022-12-18T21:41:57;-4.30;99.90
20598;DHT22;10457;48.770;11.446;2022-12-18T21:47:36;-4.40;99.00
20598;DHT22;10457;48.770;11.446;2022-12-18T21:52:58;-4.60;98.40
20598;DHT22;10457;48.770;11.446;2022-12-18T21:58:21;-4.90;97.80
20598;DHT22;10457;48.770;11.446;2022-12-18T22:03:42;-5.00;99.40
20598;DHT22;10457;48.770;11.446;2022-12-18T22:09:04;-5.20;98.80
20598;DHT22;10457;48.770;11.446;2022-12-18T22:14:27;-5.20;99.40
20598;DHT22;10457;48.770;11.446;2022-12-18T22:19:49;-5.20;99.90
20598;DHT22;10457;48.770;11.446;2022-12-18T22:25:10;-5.00;99.90
20598;DHT22;10457;48.770;11.446;2022-12-18T22:30:34;-5.20;97.10
20598;DHT22;10457;48.770;11.446;2022-12-18T22:36:20;-5.20;97.70
20598;DHT22;10457;48.770;11.446;2022-12-18T22:41:48;-5.30;97.30
20598;DHT22;10457;48.770;11.446;2022-12-18T22:47:18;-5.30;98.60
20598;DHT22;10457;48.770;11.446;2022-12-18T22:52:40;-5.40;99.90
20598;DHT22;10457;48.770;11.446;2022-12-18T22:58:01;-5.40;99.90
20598;DHT22;10457;48.770;11.446;2022-12-18T23:03:24;-5.50;99.90
20598;DHT22;10457;48.770;11.446;2022-12-18T23:08:46;-5.40;99.90
20598;DHT22;10457;48.770;11.446;2022-12-18T23:14:08;-5.40;99.90
20598;DHT22;10457;48.770;11.446;2022-12-18T23:19:31;-5.30;99.90
20598;DHT22;10457;48.770;11.446;2022-12-18T23:24:55;-5.20;99.90
20598;DHT22;10457;48.770;11.446;2022-12-18T23:30:17;-5.20;99.90
20598;DHT22;10457;48.770;11.446;2022-12-18T23:35:40;-5.20;99.90
20598;DHT22;10457;48.770;11.446;2022-12-18T23:41:05;-5.30;99.90
20598;DHT22;10457;48.770;11.446;2022-12-18T23:46:29;-5.30;99.90
20598;DHT22;10457;48.770;11.446;2022-12-18T23:51:54;-5.20;99.90
20598;DHT22;10457;48.770;11.446;2022-12-18T23:57:15;-5.10;99.90
